sensor_id;sensor_type;location;lat;lon;timestamp;temperature;humidity
30150;DHT22;16962;48.646;9.026;2023-12-20T00:00:58;5.40;1.00
30150;DHT22;16962;48.646;9.026;2023-12-20T00:03:46;5.40;1.00
30150;DHT22;16962;48.646;9.026;2023-12-20T00:06:33;5.40;1.00
30150;DHT22;16962;48.646;9.026;2023-12-20T00:09:25;5.40;1.00
30150;DHT22;16962;48.646;9.026;2023-12-20T00:12:12;5.40;1.00
30150;DHT22;16962;48.646;9.026;2023-12-20T00:15:00;5.40;1.00
30150;DHT22;16962;48.646;9.026;2023-12-20T00:17:47;5.40;1.00
30150;DHT22;16962;48.646;9.026;2023-12-20T00:20:35;5.40;30.60
30150;DHT22;16962;48.646;9.026;2023-12-20T00:23:23;5.40;1.00
30150;DHT22;16962;48.646;9.026;2023-12-20T00:26:11;5.30;99.90
30150;DHT22;16962;48.646;9.026;2023-12-20T00:28:58;5.20;1.00
30150;DHT22;16962;48.646;9.026;2023-12-20T00:31:45;5.20;99.90
30150;DHT22;16962;48.646;9.026;2023-12-20T00:34:33;5.10;99.90
30150;DHT22;16962;48.646;9.026;2023-12-20T00:37:25;5.10;99.90
30150;DHT22;16962;48.646;9.026;2023-12-20T00:40:14;5.10;1.00
30150;DHT22;16962;48.646;9.026;2023-12-20T00:43:02;5.00;1.00
30150;DHT22;16962;48.646;9.026;2023-12-20T00:45:52;5.00;1.00
30150;DHT22;16962;48.646;9.026;2023-12-20T00:48:39;5.00;1.00
30150;DHT22;16962;48.646;9.026;2023-12-20T00:51:31;5.00;25.80
30150;DHT22;16962;48.646;9.026;2023-12-20T00:54:18;4.90;36.70
30150;DHT22;16962;48.646;9.026;2023-12-20T00:57:05;4.90;50.60
30150;DHT22;16962;48.646;9.026;2023-12-20T00:59:57;4.90;58.40
30150;DHT22;16962;48.646;9.026;2023-12-20T01:02:45;4.90;83.80
30150;DHT22;16962;48.646;9.026;2023-12-20T01:05:33;4.80;99.80
30150;DHT22;16962;48.646;9.026;2023-12-20T01:08:20;4.80;99.90
30150;DHT22;16962;48.646;9.026;2023-12-20T01:11:08;4.80;99.90
30150;DHT22;16962;48.646;9.026;2023-12-20T01:13:55;4.80;99.90
30150;DHT22;16962;48.646;9.026;2023-12-20T01:16:43;4.70;99.90
30150;DHT22;16962;48.646;9.026;2023-12-20T01:19:30;4.70;99.90
30150;DHT22;16962;48.646;9.026;2023-12-20T01:22:17;4.70;99.90
30150;DHT22;16962;48.646;9.026;2023-12-20T01:25:07;4.70;99.90
30150;DHT22;16962;48.646;9.026;2023-12-20T01:27:54;4.70;99.90
30150;DHT22;16962;48.646;9.026;2023-12-20T01:30:41;4.60;99.90
30150;DHT22;16962;48.646;9.026;2023-12-20T01:33:29;4.60;99.90
30150;DHT22;16962;48.646;9.026;2023-12-20T01:36:16;4.60;99.90
30150;DHT22;16962;48.646;9.026;2023-12-20T01:39:03;4.60;99.90
30150;DHT22;16962;48.646;9.026;2023-12-20T01:41:58;4.60;99.90
30150;DHT22;16962;48.646;9.026;2023-12-20T01:44:46;4.60;99.90
30150;DHT22;16962;48.646;9.026;2023-12-20T01:47:37;4.60;99.90
30150;DHT22;16962;48.646;9.026;2023-12-20T01:50:28;4.60;99.90
30150;DHT22;16962;48.646;9.026;2023-12-20T01:53:16;4.60;99.90
30150;DHT22;16962;48.646;9.026;2023-12-20T01:56:06;4.60;99.90
30150;DHT22;16962;48.646;9.026;2023-12-20T01:58:56;4.60;99.90
30150;DHT22;16962;48.646;9.026;2023-12-20T02:01:46;4.60;99.90
30150;DHT22;16962;48.646;9.026;2023-12-20T02:04:34;4.60;99.90
30150;DHT22;16962;48.646;9.026;2023-12-20T02:07:23;4.60;99.90
30150;DHT22;16962;48.646;9.026;2023-12-20T02:10:11;4.60;99.90
30150;DHT22;16962;48.646;9.026;2023-12-20T02:12:59;4.60;99.90
30150;DHT22;16962;48.646;9.026;2023-12-20T02:15:49;4.60;99.90
30150;DHT22;16962;48.646;9.026;2023-12-20T02:18:36;4.60;99.90
30150;DHT22;16962;48.646;9.026;2023-12-20T02:21:33;4.60;99.90
30150;DHT22;16962;48.646;9.026;2023-12-20T02:24:21;4.60;99.90
30150;DHT22;16962;48.646;9.026;2023-12-20T02:27:08;4.60;99.90
30150;DHT22;16962;48.646;9.026;2023-12-20T02:29:56;4.60;99.90
30150;DHT22;16962;48.646;9.026;2023-12-20T02:32:43;4.60;99.90
30150;DHT22;16962;48.646;9.026;2023-12-20T02:35:33;4.50;99.90
30150;DHT22;16962;48.646;9.026;2023-12-20T02:38:20;4.50;99.90
30150;DHT22;16962;48.646;9.026;2023-12-20T02:41:07;4.50;99.90
30150;DHT22;16962;48.646;9.026;2023-12-20T02:43:54;4.50;99.90
30150;DHT22;16962;48.646;9.026;2023-12-20T02:46:44;4.50;99.90
30150;DHT22;16962;48.646;9.026;2023-12-20T02:49:31;4.50;99.90
30150;DHT22;16962;48.646;9.026;2023-12-20T02:52:22;4.50;99.90
30150;DHT22;16962;48.646;9.026;2023-12-20T02:55:09;4.50;99.90
30150;DHT22;16962;48.646;9.026;2023-12-20T02:57:56;4.50;99.90
30150;DHT22;16962;48.646;9.026;2023-12-20T03:00:48;4.50;99.90
30150;DHT22;16962;48.646;9.026;2023-12-20T03:03:35;4.50;99.90
30150;DHT22;16962;48.646;9.026;2023-12-20T03:06:23;4.50;99.90
30150;DHT22;16962;48.646;9.026;2023-12-20T03:09:11;4.60;99.90
30150;DHT22;16962;48.646;9.026;2023-12-20T03:12:01;4.60;99.90
30150;DHT22;16962;48.646;9.026;2023-12-20T03:14:51;4.60;99.90
30150;DHT22;16962;48.646;9.026;2023-12-20T03:17:38;4.60;99.90
30150;DHT22;16962;48.646;9.026;2023-12-20T03:20:25;4.60;99.90
30150;DHT22;16962;48.646;9.026;2023-12-20T03:23:16;4.60;99.90
30150;DHT22;16962;48.646;9.026;2023-12-20T03:26:03;4.60;99.90
30150;DHT22;16962;48.646;9.026;2023-12-20T03:28:53;4.60;99.90
30150;DHT22;16962;48.646;9.026;2023-12-20T03:31:43;4.60;99.90
30150;DHT22;16962;48.646;9.026;2023-12-20T03:34:30;4.50;99.90
30150;DHT22;16962;48.646;9.026;2023-12-20T03:37:18;4.50;99.90
30150;DHT22;16962;48.646;9.026;2023-12-20T03:40:06;4.50;99.90
30150;DHT22;16962;48.646;9.026;2023-12-20T03:42:55;4.50;99.90
30150;DHT22;16962;48.646;9.026;2023-12-20T03:45:43;4.50;99.90
30150;DHT22;16962;48.646;9.026;2023-12-20T03:48:31;4.50;99.90
30150;DHT22;16962;48.646;9.026;2023-12-20T03:51:18;4.40;99.90
30150;DHT22;16962;48.646;9.026;2023-12-20T03:54:05;4.40;99.90
30150;DHT22;16962;48.646;9.026;2023-12-20T03:56:53;4.40;99.90
30150;DHT22;16962;48.646;9.026;2023-12-20T03:59:40;4.40;99.90
30150;DHT22;16962;48.646;9.026;2023-12-20T04:02:27;4.40;99.90
30150;DHT22;16962;48.646;9.026;2023-12-20T04:05:19;4.40;99.90
30150;DHT22;16962;48.646;9.026;2023-12-20T04:08:09;4.40;99.90
30150;DHT22;16962;48.646;9.026;2023-12-20T04:10:59;4.40;99.90
30150;DHT22;16962;48.646;9.026;2023-12-20T04:13:46;4.30;99.90
30150;DHT22;16962;48.646;9.026;2023-12-20T04:16:34;4.30;99.90
30150;DHT22;16962;48.646;9.026;2023-12-20T04:19:21;4.30;99.90
30150;DHT22;16962;48.646;9.026;2023-12-20T04:22:11;4.30;99.90
30150;DHT22;16962;48.646;9.026;2023-12-20T04:24:58;4.30;99.90
30150;DHT22;16962;48.646;9.026;2023-12-20T04:27:45;4.30;99.90
30150;DHT22;16962;48.646;9.026;2023-12-20T04:30:33;4.30;99.90
30150;DHT22;16962;48.646;9.026;2023-12-20T04:33:20;4.30;99.90
30150;DHT22;16962;48.646;9.026;2023-12-20T04:36:10;4.20;99.90
30150;DHT22;16962;48.646;9.026;2023-12-20T04:38:57;4.20;99.90
30150;DHT22;16962;48.646;9.026;2023-12-20T04:41:49;4.10;99.90
30150;DHT22;16962;48.646;9.026;2023-12-20T04:44:37;4.10;99.90
30150;DHT22;16962;48.646;9.026;2023-12-20T04:47:24;4.10;99.90
30150;DHT22;16962;48.646;9.026;2023-12-20T04:50:11;4.10;99.90
30150;DHT22;16962;48.646;9.026;2023-12-20T04:53:00;4.10;99.90
30150;DHT22;16962;48.646;9.026;2023-12-20T04:55:47;4.10;99.90
30150;DHT22;16962;48.646;9.026;2023-12-20T04:58:37;4.10;99.90
30150;DHT22;16962;48.646;9.026;2023-12-20T05:01:24;4.10;99.90
30150;DHT22;16962;48.646;9.026;2023-12-20T05:04:12;4.10;99.90
30150;DHT22;16962;48.646;9.026;2023-12-20T05:07:01;4.00;99.90
30150;DHT22;16962;48.646;9.026;2023-12-20T05:09:48;4.10;99.90
30150;DHT22;16962;48.646;9.026;2023-12-20T05:12:35;4.10;99.90
30150;DHT22;16962;48.646;9.026;2023-12-20T05:15:23;4.10;99.90
30150;DHT22;16962;48.646;9.026;2023-12-20T05:18:10;4.10;99.90
30150;DHT22;16962;48.646;9.026;2023-12-20T05:21:00;4.10;99.90
30150;DHT22;16962;48.646;9.026;2023-12-20T05:23:47;4.10;99.90
30150;DHT22;16962;48.646;9.026;2023-12-20T05:26:37;4.10;99.90
30150;DHT22;16962;48.646;9.026;2023-12-20T05:29:25;4.10;99.90
30150;DHT22;16962;48.646;9.026;2023-12-20T05:32:13;4.10;99.90
30150;DHT22;16962;48.646;9.026;2023-12-20T05:35:00;4.10;99.90
30150;DHT22;16962;48.646;9.026;2023-12-20T05:37:47;4.10;99.90
30150;DHT22;16962;48.646;9.026;2023-12-20T05:40:35;4.20;99.90
30150;DHT22;16962;48.646;9.026;2023-12-20T05:43:24;4.20;99.90
30150;DHT22;16962;48.646;9.026;2023-12-20T05:46:12;4.20;99.90
30150;DHT22;16962;48.646;9.026;2023-12-20T05:48:59;4.20;99.90
30150;DHT22;16962;48.646;9.026;2023-12-20T05:51:49;4.20;99.90
30150;DHT22;16962;48.646;9.026;2023-12-20T05:54:37;4.20;99.90
30150;DHT22;16962;48.646;9.026;2023-12-20T05:57:24;4.20;99.90
30150;DHT22;16962;48.646;9.026;2023-12-20T06:00:15;4.10;99.90
30150;DHT22;16962;48.646;9.026;2023-12-20T06:05:47;4.10;99.90
30150;DHT22;16962;48.646;9.026;2023-12-20T06:08:37;4.10;99.90
30150;DHT22;16962;48.646;9.026;2023-12-20T06:11:29;4.10;99.90
30150;DHT22;16962;48.646;9.026;2023-12-20T06:14:16;4.00;99.90
30150;DHT22;16962;48.646;9.026;2023-12-20T06:17:04;4.10;99.90
30150;DHT22;16962;48.646;9.026;2023-12-20T06:19:51;4.00;99.90
30150;DHT22;16962;48.646;9.026;2023-12-20T06:22:39;4.10;99.90
30150;DHT22;16962;48.646;9.026;2023-12-20T06:25:26;4.00;99.90
30150;DHT22;16962;48.646;9.026;2023-12-20T06:28:13;4.00;99.90
30150;DHT22;16962;48.646;9.026;2023-12-20T06:31:02;4.00;99.90
30150;DHT22;16962;48.646;9.026;2023-12-20T06:33:50;4.00;99.90
30150;DHT22;16962;48.646;9.026;2023-12-20T06:36:45;4.10;99.90
30150;DHT22;16962;48.646;9.026;2023-12-20T06:39:32;4.00;99.90
30150;DHT22;16962;48.646;9.026;2023-12-20T06:42:21;4.10;99.90
30150;DHT22;16962;48.646;9.026;2023-12-20T06:45:10;4.10;99.90
30150;DHT22;16962;48.646;9.026;2023-12-20T06:47:57;4.00;99.90
30150;DHT22;16962;48.646;9.026;2023-12-20T06:50:48;4.10;99.90
30150;DHT22;16962;48.646;9.026;2023-12-20T06:53:40;4.10;99.90
30150;DHT22;16962;48.646;9.026;2023-12-20T06:56:27;4.10;99.90
30150;DHT22;16962;48.646;9.026;2023-12-20T06:59:14;4.10;99.90
30150;DHT22;16962;48.646;9.026;2023-12-20T07:02:02;4.10;99.90
30150;DHT22;16962;48.646;9.026;2023-12-20T07:04:50;4.00;99.90
30150;DHT22;16962;48.646;9.026;2023-12-20T07:07:37;4.10;99.90
30150;DHT22;16962;48.646;9.026;2023-12-20T07:10:24;4.10;99.90
30150;DHT22;16962;48.646;9.026;2023-12-20T07:13:12;4.10;99.90
30150;DHT22;16962;48.646;9.026;2023-12-20T07:16:00;4.00;99.90
30150;DHT22;16962;48.646;9.026;2023-12-20T07:18:48;4.00;99.90
30150;DHT22;16962;48.646;9.026;2023-12-20T07:21:35;4.10;99.90
30150;DHT22;16962;48.646;9.026;2023-12-20T07:24:22;4.10;99.90
30150;DHT22;16962;48.646;9.026;2023-12-20T07:27:09;4.10;99.90
30150;DHT22;16962;48.646;9.026;2023-12-20T07:29:58;4.10;99.90
30150;DHT22;16962;48.646;9.026;2023-12-20T07:32:46;4.10;99.90
30150;DHT22;16962;48.646;9.026;2023-12-20T07:35:34;4.20;99.90
30150;DHT22;16962;48.646;9.026;2023-12-20T07:38:24;4.20;99.90
30150;DHT22;16962;48.646;9.026;2023-12-20T07:41:11;4.20;99.90
30150;DHT22;16962;48.646;9.026;2023-12-20T07:43:58;4.20;99.90
30150;DHT22;16962;48.646;9.026;2023-12-20T07:46:46;4.20;99.90
30150;DHT22;16962;48.646;9.026;2023-12-20T07:49:49;4.30;99.90
30150;DHT22;16962;48.646;9.026;2023-12-20T07:52:38;4.30;99.90
30150;DHT22;16962;48.646;9.026;2023-12-20T07:55:26;4.30;99.90
30150;DHT22;16962;48.646;9.026;2023-12-20T07:58:20;4.30;99.90
30150;DHT22;16962;48.646;9.026;2023-12-20T08:01:11;4.30;99.90
30150;DHT22;16962;48.646;9.026;2023-12-20T08:03:59;4.30;99.90
30150;DHT22;16962;48.646;9.026;2023-12-20T08:06:46;4.30;99.90
30150;DHT22;16962;48.646;9.026;2023-12-20T08:09:34;4.30;99.90
30150;DHT22;16962;48.646;9.026;2023-12-20T08:12:23;4.30;99.90
30150;DHT22;16962;48.646;9.026;2023-12-20T08:15:13;4.20;99.90
30150;DHT22;16962;48.646;9.026;2023-12-20T08:18:04;4.20;99.90
30150;DHT22;16962;48.646;9.026;2023-12-20T08:20:53;4.30;99.90
30150;DHT22;16962;48.646;9.026;2023-12-20T08:23:41;4.30;99.90
30150;DHT22;16962;48.646;9.026;2023-12-20T08:26:32;4.30;99.90
30150;DHT22;16962;48.646;9.026;2023-12-20T08:29:21;4.30;99.90
30150;DHT22;16962;48.646;9.026;2023-12-20T08:32:09;4.30;99.90
30150;DHT22;16962;48.646;9.026;2023-12-20T08:34:56;4.30;99.90
30150;DHT22;16962;48.646;9.026;2023-12-20T08:37:44;4.30;99.90
30150;DHT22;16962;48.646;9.026;2023-12-20T08:40:31;4.30;99.90
30150;DHT22;16962;48.646;9.026;2023-12-20T08:43:23;4.30;99.90
30150;DHT22;16962;48.646;9.026;2023-12-20T08:46:11;4.30;99.90
30150;DHT22;16962;48.646;9.026;2023-12-20T08:48:59;4.30;99.90
30150;DHT22;16962;48.646;9.026;2023-12-20T08:51:47;4.30;99.90
30150;DHT22;16962;48.646;9.026;2023-12-20T08:54:35;4.40;99.90
30150;DHT22;16962;48.646;9.026;2023-12-20T08:57:22;4.40;99.90
30150;DHT22;16962;48.646;9.026;2023-12-20T09:00:15;4.30;99.90
30150;DHT22;16962;48.646;9.026;2023-12-20T09:03:06;4.30;99.90
30150;DHT22;16962;48.646;9.026;2023-12-20T09:05:55;4.30;99.90
30150;DHT22;16962;48.646;9.026;2023-12-20T09:08:45;4.20;99.90
30150;DHT22;16962;48.646;9.026;2023-12-20T09:11:32;4.20;99.90
30150;DHT22;16962;48.646;9.026;2023-12-20T09:14:20;4.20;99.90
30150;DHT22;16962;48.646;9.026;2023-12-20T09:17:07;4.20;99.90
30150;DHT22;16962;48.646;9.026;2023-12-20T09:19:56;4.20;99.90
30150;DHT22;16962;48.646;9.026;2023-12-20T09:22:43;4.10;99.90
30150;DHT22;16962;48.646;9.026;2023-12-20T09:25:31;4.10;99.90
30150;DHT22;16962;48.646;9.026;2023-12-20T09:28:18;4.00;99.90
30150;DHT22;16962;48.646;9.026;2023-12-20T09:31:06;4.00;99.90
30150;DHT22;16962;48.646;9.026;2023-12-20T09:33:54;3.80;99.90
30150;DHT22;16962;48.646;9.026;2023-12-20T09:36:41;3.80;99.90
30150;DHT22;16962;48.646;9.026;2023-12-20T09:39:36;4.00;99.90
30150;DHT22;16962;48.646;9.026;2023-12-20T09:45:32;5.60;99.90
30150;DHT22;16962;48.646;9.026;2023-12-20T09:48:20;7.00;99.90
30150;DHT22;16962;48.646;9.026;2023-12-20T09:51:07;8.00;99.90
30150;DHT22;16962;48.646;9.026;2023-12-20T09:54:03;8.10;1.00
30150;DHT22;16962;48.646;9.026;2023-12-20T09:56:51;8.30;1.00
30150;DHT22;16962;48.646;9.026;2023-12-20T09:59:38;7.80;1.00
30150;DHT22;16962;48.646;9.026;2023-12-20T10:02:31;7.30;99.90
30150;DHT22;16962;48.646;9.026;2023-12-20T10:05:26;6.60;1.00
30150;DHT22;16962;48.646;9.026;2023-12-20T10:08:14;6.30;99.90
30150;DHT22;16962;48.646;9.026;2023-12-20T10:11:01;5.90;99.90
30150;DHT22;16962;48.646;9.026;2023-12-20T10:13:50;5.60;99.90
30150;DHT22;16962;48.646;9.026;2023-12-20T10:16:39;5.40;99.90
30150;DHT22;16962;48.646;9.026;2023-12-20T10:19:33;5.40;99.90
30150;DHT22;16962;48.646;9.026;2023-12-20T10:22:21;5.60;99.90
30150;DHT22;16962;48.646;9.026;2023-12-20T10:25:14;5.70;99.90
30150;DHT22;16962;48.646;9.026;2023-12-20T10:28:32;5.90;99.90
30150;DHT22;16962;48.646;9.026;2023-12-20T10:31:33;6.00;54.60
30150;DHT22;16962;48.646;9.026;2023-12-20T10:34:21;6.20;1.00
30150;DHT22;16962;48.646;9.026;2023-12-20T10:37:09;6.30;1.00
30150;DHT22;16962;48.646;9.026;2023-12-20T10:39:59;6.00;99.90
30150;DHT22;16962;48.646;9.026;2023-12-20T10:42:50;5.80;99.90
30150;DHT22;16962;48.646;9.026;2023-12-20T10:45:42;5.70;99.90
30150;DHT22;16962;48.646;9.026;2023-12-20T10:48:32;5.70;99.90
30150;DHT22;16962;48.646;9.026;2023-12-20T10:51:20;5.50;99.90
30150;DHT22;16962;48.646;9.026;2023-12-20T10:54:08;5.30;99.90
30150;DHT22;16962;48.646;9.026;2023-12-20T10:57:00;5.30;99.90
30150;DHT22;16962;48.646;9.026;2023-12-20T10:59:53;5.30;99.90
30150;DHT22;16962;48.646;9.026;2023-12-20T11:02:41;5.20;99.90
30150;DHT22;16962;48.646;9.026;2023-12-20T11:05:46;5.30;99.90
30150;DHT22;16962;48.646;9.026;2023-12-20T11:08:51;5.30;99.90
30150;DHT22;16962;48.646;9.026;2023-12-20T11:14:50;5.40;99.90
30150;DHT22;16962;48.646;9.026;2023-12-20T11:17:39;5.30;99.90
30150;DHT22;16962;48.646;9.026;2023-12-20T11:20:41;5.30;99.90
30150;DHT22;16962;48.646;9.026;2023-12-20T11:23:30;5.40;99.90
30150;DHT22;16962;48.646;9.026;2023-12-20T11:26:23;5.40;99.90
30150;DHT22;16962;48.646;9.026;2023-12-20T11:29:33;5.40;99.90
30150;DHT22;16962;48.646;9.026;2023-12-20T11:35:16;5.70;99.90
30150;DHT22;16962;48.646;9.026;2023-12-20T11:38:07;6.10;99.90
30150;DHT22;16962;48.646;9.026;2023-12-20T11:40:59;6.20;99.90
30150;DHT22;16962;48.646;9.026;2023-12-20T11:43:53;5.80;99.90
30150;DHT22;16962;48.646;9.026;2023-12-20T11:46:40;5.50;99.90
30150;DHT22;16962;48.646;9.026;2023-12-20T11:49:30;5.30;99.90
30150;DHT22;16962;48.646;9.026;2023-12-20T11:52:20;5.20;99.90
30150;DHT22;16962;48.646;9.026;2023-12-20T11:55:07;5.10;99.90
30150;DHT22;16962;48.646;9.026;2023-12-20T11:57:56;5.10;99.90
30150;DHT22;16962;48.646;9.026;2023-12-20T12:00:44;5.00;99.90
30150;DHT22;16962;48.646;9.026;2023-12-20T12:03:32;5.00;99.90
30150;DHT22;16962;48.646;9.026;2023-12-20T12:06:19;4.90;99.90
30150;DHT22;16962;48.646;9.026;2023-12-20T12:09:08;4.90;99.90
30150;DHT22;16962;48.646;9.026;2023-12-20T12:11:55;4.80;99.90
30150;DHT22;16962;48.646;9.026;2023-12-20T12:14:44;4.80;99.90
30150;DHT22;16962;48.646;9.026;2023-12-20T12:17:32;4.80;99.90
30150;DHT22;16962;48.646;9.026;2023-12-20T12:20:23;4.80;99.90
30150;DHT22;16962;48.646;9.026;2023-12-20T12:23:13;4.80;99.90
30150;DHT22;16962;48.646;9.026;2023-12-20T12:26:04;4.80;99.90
30150;DHT22;16962;48.646;9.026;2023-12-20T12:28:54;4.70;99.90
30150;DHT22;16962;48.646;9.026;2023-12-20T12:31:41;4.70;99.90
30150;DHT22;16962;48.646;9.026;2023-12-20T12:34:28;4.80;99.90
30150;DHT22;16962;48.646;9.026;2023-12-20T12:37:18;4.80;99.90
30150;DHT22;16962;48.646;9.026;2023-12-20T12:40:13;4.70;99.90
30150;DHT22;16962;48.646;9.026;2023-12-20T12:43:00;4.80;99.90
30150;DHT22;16962;48.646;9.026;2023-12-20T12:45:50;4.80;99.90
30150;DHT22;16962;48.646;9.026;2023-12-20T12:48:37;4.90;99.90
30150;DHT22;16962;48.646;9.026;2023-12-20T12:51:26;4.90;99.90
30150;DHT22;16962;48.646;9.026;2023-12-20T12:54:15;4.90;99.90
30150;DHT22;16962;48.646;9.026;2023-12-20T12:57:05;4.90;99.90
30150;DHT22;16962;48.646;9.026;2023-12-20T12:59:52;5.20;99.90
30150;DHT22;16962;48.646;9.026;2023-12-20T13:02:40;6.70;99.90
30150;DHT22;16962;48.646;9.026;2023-12-20T13:05:29;7.60;9.90
30150;DHT22;16962;48.646;9.026;2023-12-20T13:08:25;7.30;1.00
30150;DHT22;16962;48.646;9.026;2023-12-20T13:11:17;6.60;1.00
30150;DHT22;16962;48.646;9.026;2023-12-20T13:14:12;6.00;1.00
30150;DHT22;16962;48.646;9.026;2023-12-20T13:17:03;5.90;1.00
30150;DHT22;16962;48.646;9.026;2023-12-20T13:19:50;6.10;1.00
30150;DHT22;16962;48.646;9.026;2023-12-20T13:22:38;5.90;1.00
30150;DHT22;16962;48.646;9.026;2023-12-20T13:25:25;5.80;1.00
30150;DHT22;16962;48.646;9.026;2023-12-20T13:28:16;6.00;1.00
30150;DHT22;16962;48.646;9.026;2023-12-20T13:31:03;6.20;1.00
30150;DHT22;16962;48.646;9.026;2023-12-20T13:33:51;6.20;1.00
30150;DHT22;16962;48.646;9.026;2023-12-20T13:36:39;6.00;1.00
30150;DHT22;16962;48.646;9.026;2023-12-20T13:39:27;5.70;1.00
30150;DHT22;16962;48.646;9.026;2023-12-20T13:42:14;5.40;1.00
30150;DHT22;16962;48.646;9.026;2023-12-20T13:45:01;5.30;1.00
30150;DHT22;16962;48.646;9.026;2023-12-20T13:47:51;5.30;15.60
30150;DHT22;16962;48.646;9.026;2023-12-20T13:50:41;5.20;20.50
30150;DHT22;16962;48.646;9.026;2023-12-20T13:53:29;5.10;37.70
30150;DHT22;16962;48.646;9.026;2023-12-20T13:56:16;5.00;82.80
30150;DHT22;16962;48.646;9.026;2023-12-20T13:59:03;4.90;95.10
30150;DHT22;16962;48.646;9.026;2023-12-20T14:01:51;4.80;99.90
30150;DHT22;16962;48.646;9.026;2023-12-20T14:04:38;4.80;99.90
30150;DHT22;16962;48.646;9.026;2023-12-20T14:07:30;4.80;99.90
30150;DHT22;16962;48.646;9.026;2023-12-20T14:10:20;4.80;99.90
30150;DHT22;16962;48.646;9.026;2023-12-20T14:13:07;4.70;99.90
30150;DHT22;16962;48.646;9.026;2023-12-20T14:19:33;4.60;99.90
30150;DHT22;16962;48.646;9.026;2023-12-20T14:22:21;4.60;99.90
30150;DHT22;16962;48.646;9.026;2023-12-20T14:25:08;4.50;99.90
30150;DHT22;16962;48.646;9.026;2023-12-20T14:27:56;4.50;99.90
30150;DHT22;16962;48.646;9.026;2023-12-20T14:30:44;4.40;99.90
30150;DHT22;16962;48.646;9.026;2023-12-20T14:33:34;4.40;99.90
30150;DHT22;16962;48.646;9.026;2023-12-20T14:36:21;4.30;99.90
30150;DHT22;16962;48.646;9.026;2023-12-20T14:39:09;4.30;1.00
30150;DHT22;16962;48.646;9.026;2023-12-20T14:41:59;4.20;99.90
30150;DHT22;16962;48.646;9.026;2023-12-20T14:44:49;4.20;27.90
30150;DHT22;16962;48.646;9.026;2023-12-20T14:47:39;4.00;1.00
30150;DHT22;16962;48.646;9.026;2023-12-20T14:50:29;3.90;99.90
30150;DHT22;16962;48.646;9.026;2023-12-20T14:53:21;3.90;1.00
30150;DHT22;16962;48.646;9.026;2023-12-20T14:56:09;3.80;1.00
30150;DHT22;16962;48.646;9.026;2023-12-20T14:58:57;3.80;1.00
30150;DHT22;16962;48.646;9.026;2023-12-20T15:01:49;3.70;1.00
30150;DHT22;16962;48.646;9.026;2023-12-20T15:04:36;3.70;99.90
30150;DHT22;16962;48.646;9.026;2023-12-20T15:07:24;3.70;1.00
30150;DHT22;16962;48.646;9.026;2023-12-20T15:10:14;3.70;1.00
30150;DHT22;16962;48.646;9.026;2023-12-20T15:13:01;3.70;1.00
30150;DHT22;16962;48.646;9.026;2023-12-20T15:15:50;3.80;1.00
30150;DHT22;16962;48.646;9.026;2023-12-20T15:18:41;3.70;99.90
30150;DHT22;16962;48.646;9.026;2023-12-20T15:21:28;3.60;1.00
30150;DHT22;16962;48.646;9.026;2023-12-20T15:24:21;3.60;1.00
30150;DHT22;16962;48.646;9.026;2023-12-20T15:27:17;3.60;1.00
30150;DHT22;16962;48.646;9.026;2023-12-20T15:30:09;3.60;1.00
30150;DHT22;16962;48.646;9.026;2023-12-20T15:32:57;3.60;99.90
30150;DHT22;16962;48.646;9.026;2023-12-20T15:35:45;3.50;99.90
30150;DHT22;16962;48.646;9.026;2023-12-20T15:38:32;3.50;94.40
30150;DHT22;16962;48.646;9.026;2023-12-20T15:41:22;3.50;99.90
30150;DHT22;16962;48.646;9.026;2023-12-20T15:44:10;3.50;99.90
30150;DHT22;16962;48.646;9.026;2023-12-20T15:46:58;3.50;99.90
30150;DHT22;16962;48.646;9.026;2023-12-20T15:49:47;3.50;99.90
30150;DHT22;16962;48.646;9.026;2023-12-20T15:52:39;3.50;99.90
30150;DHT22;16962;48.646;9.026;2023-12-20T15:55:26;3.50;99.90
30150;DHT22;16962;48.646;9.026;2023-12-20T15:58:15;3.50;99.90
30150;DHT22;16962;48.646;9.026;2023-12-20T16:01:05;3.50;99.90
30150;DHT22;16962;48.646;9.026;2023-12-20T16:03:55;3.40;99.90
30150;DHT22;16962;48.646;9.026;2023-12-20T16:06:45;3.40;99.90
30150;DHT22;16962;48.646;9.026;2023-12-20T16:09:33;3.40;99.90
30150;DHT22;16962;48.646;9.026;2023-12-20T16:12:22;3.50;1.00
30150;DHT22;16962;48.646;9.026;2023-12-20T16:15:10;3.40;99.90
30150;DHT22;16962;48.646;9.026;2023-12-20T16:17:59;3.40;99.90
30150;DHT22;16962;48.646;9.026;2023-12-20T16:20:47;3.40;99.90
30150;DHT22;16962;48.646;9.026;2023-12-20T16:23:34;3.50;1.00
30150;DHT22;16962;48.646;9.026;2023-12-20T16:26:21;3.40;1.00
30150;DHT22;16962;48.646;9.026;2023-12-20T16:29:08;3.40;1.00
30150;DHT22;16962;48.646;9.026;2023-12-20T16:31:56;3.40;1.00
30150;DHT22;16962;48.646;9.026;2023-12-20T16:34:44;3.40;1.00
30150;DHT22;16962;48.646;9.026;2023-12-20T16:37:32;3.40;1.00
30150;DHT22;16962;48.646;9.026;2023-12-20T16:40:19;3.40;1.00
30150;DHT22;16962;48.646;9.026;2023-12-20T16:43:11;3.40;1.00
30150;DHT22;16962;48.646;9.026;2023-12-20T16:45:58;3.40;1.00
30150;DHT22;16962;48.646;9.026;2023-12-20T16:48:47;3.40;1.00
30150;DHT22;16962;48.646;9.026;2023-12-20T16:51:34;3.40;1.00
30150;DHT22;16962;48.646;9.026;2023-12-20T16:54:24;3.30;1.00
30150;DHT22;16962;48.646;9.026;2023-12-20T16:57:12;3.30;1.00
30150;DHT22;16962;48.646;9.026;2023-12-20T16:59:59;3.30;1.00
30150;DHT22;16962;48.646;9.026;2023-12-20T17:02:46;3.30;1.00
30150;DHT22;16962;48.646;9.026;2023-12-20T17:05:33;3.30;1.00
30150;DHT22;16962;48.646;9.026;2023-12-20T17:08:21;3.30;1.00
30150;DHT22;16962;48.646;9.026;2023-12-20T17:11:09;3.30;1.00
30150;DHT22;16962;48.646;9.026;2023-12-20T17:13:59;3.30;1.00
30150;DHT22;16962;48.646;9.026;2023-12-20T17:16:47;3.30;1.00
30150;DHT22;16962;48.646;9.026;2023-12-20T17:19:35;3.30;1.00
30150;DHT22;16962;48.646;9.026;2023-12-20T17:22:23;3.30;1.00
30150;DHT22;16962;48.646;9.026;2023-12-20T17:25:15;3.30;1.00
30150;DHT22;16962;48.646;9.026;2023-12-20T17:28:04;3.30;1.00
30150;DHT22;16962;48.646;9.026;2023-12-20T17:30:54;3.20;1.00
30150;DHT22;16962;48.646;9.026;2023-12-20T17:33:42;3.20;1.00
30150;DHT22;16962;48.646;9.026;2023-12-20T17:36:29;3.10;1.00
30150;DHT22;16962;48.646;9.026;2023-12-20T17:39:16;3.10;1.00
30150;DHT22;16962;48.646;9.026;2023-12-20T17:42:04;3.10;1.00
30150;DHT22;16962;48.646;9.026;2023-12-20T17:44:51;3.10;1.00
30150;DHT22;16962;48.646;9.026;2023-12-20T17:47:42;3.10;1.00
30150;DHT22;16962;48.646;9.026;2023-12-20T17:50:31;3.10;1.00
30150;DHT22;16962;48.646;9.026;2023-12-20T17:53:23;3.10;5.10
30150;DHT22;16962;48.646;9.026;2023-12-20T17:56:10;3.10;5.50
30150;DHT22;16962;48.646;9.026;2023-12-20T17:59:00;3.10;3.40
30150;DHT22;16962;48.646;9.026;2023-12-20T18:01:50;3.10;1.00
30150;DHT22;16962;48.646;9.026;2023-12-20T18:04:37;3.10;9.40
30150;DHT22;16962;48.646;9.026;2023-12-20T18:07:29;3.00;20.10
30150;DHT22;16962;48.646;9.026;2023-12-20T18:10:19;3.00;20.30
30150;DHT22;16962;48.646;9.026;2023-12-20T18:13:07;3.00;28.70
30150;DHT22;16962;48.646;9.026;2023-12-20T18:15:54;3.00;31.80
30150;DHT22;16962;48.646;9.026;2023-12-20T18:18:44;3.10;18.70
30150;DHT22;16962;48.646;9.026;2023-12-20T18:21:34;3.10;1.00
30150;DHT22;16962;48.646;9.026;2023-12-20T18:24:24;3.20;1.00